Fergus Falls, Minnesota
Current Conditions -  °F | °C
As of 3:14 PM on Friday 31 Oct 2014 (Local Time) from KFFM Reporting Station
Clear Clear  
Wind Chill: 33°   Ceiling: Unl
Heat Index: 37°   Visibility: 10mi
Dew Point: 18°   Wind: 6mph
Humidity: 45%   Direction: 190°S
Pressure: 30.51"   Gusts: NA
Location:  46.28°N, 96.07°W
Report Text: KFFM 312014Z AUTO 19005KT 10SM CLR 03/M08 A3051 RMK AO2
Loading
Personal Weather Stations






























Interactive Weather Map
Tropical Storm Tracking
New forecast layout! Learn more

10-Day Weather Forecast

Advertisements
Track Severe Weather on mobile